createdAt,value
2022-07-27T00:01:25.747Z,1.20
2022-07-27T00:03:52.340Z,1.10
2022-07-27T00:06:18.921Z,0.80
2022-07-27T00:08:45.579Z,1.27
2022-07-27T00:11:12.435Z,1.50
2022-07-27T00:13:39.323Z,1.00
2022-07-27T00:16:06.023Z,0.82
2022-07-27T00:18:32.870Z,1.00
2022-07-27T00:20:59.484Z,1.10
2022-07-27T00:23:26.037Z,1.02
2022-07-27T00:25:52.909Z,0.90
2022-07-27T00:28:19.517Z,1.50
2022-07-27T00:30:46.083Z,1.13
2022-07-27T00:33:16.955Z,1.20
2022-07-27T00:35:44.379Z,1.02
2022-07-27T00:38:10.912Z,1.35
2022-07-27T00:40:37.465Z,1.15
2022-07-27T00:43:04.027Z,1.58
2022-07-27T00:45:30.652Z,1.30
2022-07-27T00:47:57.396Z,1.10
2022-07-27T00:50:24.019Z,1.40
2022-07-27T00:52:51.201Z,1.00
2022-07-27T00:55:17.720Z,1.17
2022-07-27T00:57:58.225Z,1.58
2022-07-27T01:00:25.845Z,1.30
2022-07-27T01:02:52.480Z,1.08
2022-07-27T01:05:19.149Z,0.90
2022-07-27T01:07:47.453Z,1.40
2022-07-27T01:10:14.004Z,1.20
2022-07-27T01:12:41.153Z,1.05
2022-07-27T01:15:07.768Z,0.93
2022-07-27T01:17:34.432Z,1.23
2022-07-27T01:20:01.019Z,1.58
2022-07-27T01:22:27.662Z,1.30
2022-07-27T01:24:54.259Z,1.52
2022-07-27T01:27:21.056Z,1.17
2022-07-27T01:29:47.803Z,1.35
2022-07-27T01:32:14.441Z,1.17
2022-07-27T01:34:40.991Z,1.20
2022-07-27T01:37:07.650Z,1.55
2022-07-27T01:39:34.307Z,1.60
2022-07-27T01:42:01.097Z,1.60
2022-07-27T01:44:28.061Z,1.02
2022-07-27T01:46:54.654Z,1.30
2022-07-27T01:49:21.426Z,1.38
2022-07-27T01:51:48.068Z,1.38
2022-07-27T01:54:14.737Z,1.38
2022-07-27T01:56:41.515Z,1.45
2022-07-27T01:59:16.741Z,1.23
2022-07-27T02:01:44.233Z,1.17
2022-07-27T02:04:10.851Z,1.60
2022-07-27T02:06:37.369Z,1.30
2022-07-27T02:09:03.920Z,1.23
2022-07-27T02:11:48.991Z,1.50
2022-07-27T02:14:16.531Z,1.10
2022-07-27T02:16:43.484Z,1.10
2022-07-27T02:19:11.167Z,1.65
2022-07-27T02:21:38.730Z,1.08
2022-07-27T02:24:05.462Z,1.13
2022-07-27T02:26:32.060Z,1.25
2022-07-27T02:28:58.679Z,1.40
2022-07-27T02:31:25.312Z,1.40
2022-07-27T02:33:51.822Z,1.05
2022-07-27T02:36:19.136Z,1.08
2022-07-27T02:38:46.067Z,1.20
2022-07-27T02:41:12.556Z,1.25
2022-07-27T02:43:39.039Z,1.20
2022-07-27T02:46:06.150Z,1.15
2022-07-27T02:48:33.138Z,1.00
2022-07-27T02:51:00.322Z,1.00
2022-07-27T02:53:26.859Z,1.00
2022-07-27T02:55:53.401Z,1.50
2022-07-27T02:58:19.920Z,1.00
2022-07-27T03:00:46.408Z,1.38
2022-07-27T03:03:13.152Z,1.20
2022-07-27T03:05:39.783Z,1.48
2022-07-27T03:08:06.315Z,1.10
2022-07-27T03:10:32.863Z,1.08
2022-07-27T03:12:59.403Z,1.40
2022-07-27T03:15:26.068Z,1.10
2022-07-27T03:17:52.788Z,1.13
2022-07-27T03:20:19.431Z,1.20
2022-07-27T03:22:45.922Z,0.98
2022-07-27T03:25:12.414Z,1.85
2022-07-27T03:27:38.927Z,1.33
2022-07-27T03:30:06.252Z,1.10
2022-07-27T03:32:32.777Z,1.08
2022-07-27T03:34:59.327Z,1.40
2022-07-27T03:37:25.913Z,1.80
2022-07-27T03:39:52.423Z,1.40
2022-07-27T03:42:18.969Z,1.17
2022-07-27T03:44:45.533Z,1.52
2022-07-27T03:47:12.044Z,1.17
2022-07-27T03:49:38.637Z,1.02
2022-07-27T03:52:05.366Z,1.25
2022-07-27T03:54:31.929Z,1.10
2022-07-27T03:56:58.502Z,1.40
2022-07-27T03:59:26.408Z,1.48
2022-07-27T04:01:54.276Z,1.52
2022-07-27T04:04:20.797Z,1.35
2022-07-27T04:06:47.873Z,1.30
2022-07-27T04:09:17.370Z,1.17
2022-07-27T04:11:51.074Z,1.27
2022-07-27T04:14:18.270Z,1.20
2022-07-27T04:16:44.805Z,1.48
2022-07-27T04:19:11.686Z,1.23
2022-07-27T11:21:26.765Z,0.57
2022-07-27T11:23:53.442Z,0.52
2022-07-27T11:26:20.665Z,0.40
2022-07-27T11:28:47.276Z,0.47
2022-07-27T11:31:20.025Z,0.55
2022-07-27T11:34:00.036Z,0.70
2022-07-27T11:36:42.532Z,0.63
2022-07-27T11:39:14.735Z,0.60
2022-07-27T11:42:07.760Z,0.50
2022-07-27T11:44:29.344Z,0.75
2022-07-27T11:47:01.584Z,0.50
2022-07-27T11:49:30.229Z,0.55
2022-07-27T11:51:58.422Z,0.40
2022-07-27T11:54:25.951Z,0.70
2022-07-27T11:56:57.348Z,0.70
2022-07-27T11:59:25.363Z,0.60
2022-07-27T12:01:53.100Z,0.70
2022-07-27T12:04:19.630Z,0.73
2022-07-27T12:06:48.008Z,0.50
2022-07-27T12:09:16.185Z,0.77
2022-07-27T12:11:50.984Z,0.60
2022-07-27T12:14:18.096Z,0.57
2022-07-27T12:16:45.687Z,0.47
2022-07-27T12:19:12.652Z,0.70
2022-07-27T12:21:39.373Z,0.60
2022-07-27T12:24:05.983Z,0.63
2022-07-27T12:26:32.679Z,0.63
2022-07-27T12:29:09.953Z,0.70
2022-07-27T12:31:37.574Z,0.70
2022-07-27T12:34:07.224Z,0.98
2022-07-27T12:36:33.811Z,0.70
2022-07-27T12:39:00.336Z,0.77
2022-07-27T12:41:27.984Z,0.65
2022-07-27T12:44:14.177Z,1.40
2022-07-27T12:46:53.148Z,0.65
2022-07-27T12:49:23.910Z,0.65
2022-07-27T12:51:50.885Z,0.70
2022-07-27T12:54:17.564Z,0.70
2022-07-27T12:56:44.126Z,0.60
2022-07-27T12:59:10.965Z,1.05
2022-07-27T13:01:37.698Z,0.70
2022-07-27T13:04:04.254Z,0.68
2022-07-27T13:06:31.175Z,0.60
2022-07-27T13:08:57.737Z,0.60
2022-07-27T13:11:25.321Z,0.50
2022-07-27T13:13:51.828Z,0.50
2022-07-27T13:16:18.374Z,1.05
2022-07-27T13:18:44.899Z,0.60
2022-07-27T13:21:11.429Z,0.68
2022-07-27T13:23:37.938Z,0.50
2022-07-27T13:26:04.475Z,0.57
2022-07-27T13:28:31.000Z,0.52
2022-07-27T13:30:57.503Z,0.50
2022-07-27T13:33:24.668Z,0.43
2022-07-27T13:35:51.669Z,0.50
2022-07-27T13:38:28.754Z,0.60
2022-07-27T13:40:55.512Z,0.50
2022-07-27T13:43:22.127Z,0.43
2022-07-27T13:45:49.527Z,0.63
2022-07-27T13:48:16.713Z,0.70
2022-07-27T13:50:43.271Z,0.70
2022-07-27T13:53:09.775Z,0.85
2022-07-27T13:55:42.010Z,0.60
2022-07-27T13:58:08.569Z,0.50
2022-07-27T14:00:35.903Z,0.57
2022-07-27T14:03:02.467Z,0.50
2022-07-27T14:05:29.680Z,0.50
2022-07-27T14:07:58.199Z,0.70
2022-07-27T14:10:31.998Z,0.70
2022-07-27T14:13:01.791Z,0.65
2022-07-27T14:15:35.266Z,0.50
2022-07-27T14:18:19.465Z,0.65
2022-07-27T14:20:45.993Z,0.80
2022-07-27T14:23:12.483Z,0.70
2022-07-27T14:25:39.011Z,0.80
2022-07-27T14:28:05.915Z,0.70
2022-07-27T14:30:32.443Z,0.60
2022-07-27T14:33:02.999Z,0.68
2022-07-27T14:35:29.925Z,0.88
2022-07-27T14:37:58.450Z,0.63
2022-07-27T14:40:25.751Z,0.60
2022-07-27T14:42:52.344Z,0.95
2022-07-27T14:45:19.900Z,0.57
2022-07-27T14:47:46.661Z,0.50
2022-07-27T14:50:13.525Z,0.50
2022-07-27T14:52:40.003Z,0.40
2022-07-27T14:55:06.902Z,0.80
2022-07-27T14:57:33.639Z,0.55
2022-07-27T15:00:00.467Z,0.60
2022-07-27T15:02:27.200Z,0.60
2022-07-27T15:04:53.741Z,0.90
2022-07-27T15:07:20.221Z,0.60
2022-07-27T15:09:46.726Z,0.70
2022-07-27T15:12:13.251Z,0.43
2022-07-27T15:14:39.811Z,0.70
2022-07-27T15:17:06.448Z,0.60
2022-07-27T15:19:33.046Z,0.70
2022-07-27T15:21:59.598Z,0.90
2022-07-27T15:24:26.205Z,0.82
2022-07-27T15:26:52.803Z,0.80
2022-07-27T15:29:19.308Z,0.52
2022-07-27T15:31:45.898Z,0.90
2022-07-27T15:34:12.436Z,0.52
2022-07-27T15:36:45.922Z,0.70
2022-07-27T15:39:20.737Z,0.93
2022-07-27T15:41:47.778Z,0.77
2022-07-27T15:44:14.415Z,0.65
2022-07-27T15:46:41.023Z,0.50
2022-07-27T15:49:07.702Z,0.57
2022-07-27T15:51:34.319Z,0.80
2022-07-27T15:54:00.881Z,0.93
2022-07-27T15:56:27.415Z,0.82
2022-07-27T15:58:54.230Z,0.70
2022-07-27T16:01:21.434Z,1.42
2022-07-27T16:03:48.990Z,0.70
2022-07-27T16:06:16.061Z,0.60
2022-07-27T16:08:44.255Z,0.60
2022-07-27T16:11:10.772Z,0.85
2022-07-27T16:13:37.451Z,0.73
2022-07-27T16:16:24.900Z,0.55
2022-07-27T16:18:52.588Z,0.55
2022-07-27T16:21:19.980Z,0.60
2022-07-27T16:23:46.973Z,0.98
2022-07-27T16:26:13.771Z,0.60
2022-07-27T16:28:41.405Z,0.60
2022-07-27T16:31:10.700Z,0.60
2022-07-27T16:33:37.656Z,0.70
2022-07-27T16:36:05.618Z,0.77
2022-07-27T16:38:32.226Z,0.40
2022-07-27T16:40:58.748Z,0.60
2022-07-27T16:43:38.097Z,0.60
2022-07-27T16:46:06.441Z,0.60
2022-07-27T16:48:42.983Z,0.57
2022-07-27T16:51:13.828Z,0.68
2022-07-27T16:53:44.873Z,0.60
2022-07-27T16:56:11.599Z,0.52
2022-07-27T16:58:38.514Z,0.63
2022-07-27T17:01:05.680Z,0.70
2022-07-27T17:03:32.202Z,0.65
2022-07-27T17:06:03.653Z,0.60
2022-07-27T17:08:32.225Z,0.95
2022-07-27T17:11:00.585Z,0.70
2022-07-27T17:13:33.941Z,0.55
2022-07-27T17:16:01.705Z,0.50
2022-07-27T17:18:28.303Z,0.70
2022-07-27T17:20:54.831Z,0.80
2022-07-27T17:23:21.335Z,0.80
2022-07-27T17:25:47.870Z,0.60
2022-07-27T17:28:14.402Z,0.85
2022-07-27T17:30:40.904Z,0.60
2022-07-27T17:33:07.528Z,0.60
2022-07-27T17:35:35.262Z,0.60
2022-07-27T17:38:06.673Z,0.80
2022-07-27T17:40:34.124Z,0.50
2022-07-27T17:43:00.661Z,0.50
2022-07-27T17:45:27.431Z,0.40
2022-07-27T17:47:54.258Z,0.70
2022-07-27T17:50:20.801Z,1.05
2022-07-27T17:52:47.317Z,0.85
2022-07-27T17:55:13.928Z,0.77
2022-07-27T17:57:40.424Z,0.60
2022-07-27T18:00:07.771Z,0.80
2022-07-27T18:02:36.340Z,0.80
2022-07-27T18:05:02.896Z,0.90
2022-07-27T18:07:29.407Z,0.70
2022-07-27T18:10:05.829Z,0.93
2022-07-27T18:12:32.372Z,0.60
2022-07-27T18:15:17.320Z,0.80
2022-07-27T18:17:43.843Z,0.70
2022-07-27T18:20:10.830Z,0.50
2022-07-27T18:22:38.686Z,0.75
2022-07-27T18:25:06.088Z,0.55
2022-07-27T18:27:35.347Z,0.85
2022-07-27T18:30:02.764Z,0.95
2022-07-27T18:32:29.457Z,1.00
2022-07-27T18:34:56.241Z,0.70
2022-07-27T18:37:22.776Z,0.70
2022-07-27T18:39:49.297Z,0.85
2022-07-27T18:42:15.825Z,0.80
2022-07-27T18:44:42.345Z,0.60
2022-07-27T18:47:08.887Z,0.80
2022-07-27T18:49:35.738Z,0.73
2022-07-27T18:52:02.677Z,0.82
2022-07-27T18:54:29.561Z,0.85
2022-07-27T18:56:56.329Z,1.00
2022-07-27T18:59:22.954Z,0.75
2022-07-27T19:01:49.542Z,0.60
2022-07-27T19:04:16.514Z,0.82
2022-07-27T19:06:44.471Z,0.65
2022-07-27T19:09:13.055Z,0.90
2022-07-27T19:11:39.770Z,0.63
2022-07-27T19:14:06.363Z,0.43
2022-07-27T19:16:34.375Z,0.63
2022-07-27T19:19:01.679Z,0.50
2022-07-27T19:21:28.304Z,0.70
2022-07-27T19:23:55.070Z,1.23
2022-07-27T19:26:21.579Z,0.90
2022-07-27T19:28:48.114Z,0.70
2022-07-27T19:31:23.476Z,0.88
2022-07-27T19:33:51.188Z,0.98
2022-07-27T19:36:18.005Z,1.00
2022-07-27T19:38:44.490Z,0.90
2022-07-27T19:41:11.436Z,0.73
2022-07-27T19:43:37.992Z,0.93
2022-07-27T19:46:04.516Z,0.73
2022-07-27T19:48:31.209Z,1.30
2022-07-27T19:51:00.987Z,1.17
2022-07-27T19:53:31.358Z,1.13
2022-07-27T19:55:59.564Z,0.90
2022-07-27T19:58:26.095Z,1.30
2022-07-27T20:00:53.260Z,1.00
2022-07-27T20:03:20.680Z,0.90
2022-07-27T20:05:47.708Z,1.05
2022-07-27T20:08:14.645Z,0.80
2022-07-27T20:10:42.407Z,0.70
2022-07-27T20:13:10.395Z,0.88
2022-07-27T20:15:36.949Z,0.88
2022-07-27T20:18:03.573Z,1.08
2022-07-27T20:20:30.115Z,0.80
2022-07-27T20:22:56.731Z,0.75
2022-07-27T20:25:23.318Z,0.77
2022-07-27T20:27:50.230Z,0.65
2022-07-27T20:30:17.979Z,1.00
2022-07-27T20:32:44.887Z,1.00
2022-07-27T20:35:11.490Z,0.68
2022-07-27T20:37:38.088Z,0.88
2022-07-27T20:40:09.724Z,0.95
2022-07-27T20:42:36.287Z,0.95
2022-07-27T20:45:09.892Z,1.00
2022-07-27T20:47:38.304Z,1.48
2022-07-27T20:50:09.129Z,1.70
2022-07-27T20:52:35.787Z,2.30
2022-07-27T20:55:02.381Z,1.27
2022-07-27T20:57:28.941Z,0.85
2022-07-27T20:59:55.511Z,1.30
2022-07-27T21:02:22.086Z,1.88
2022-07-27T21:04:48.689Z,1.38
2022-07-27T21:07:15.781Z,1.02
2022-07-27T21:09:42.278Z,1.08
2022-07-27T21:12:08.837Z,0.90
2022-07-27T21:14:35.333Z,0.73
2022-07-27T21:17:01.942Z,0.95
2022-07-27T21:19:28.499Z,0.93
2022-07-27T21:21:55.026Z,1.00
2022-07-27T21:24:22.919Z,0.85
2022-07-27T21:26:50.988Z,0.70
2022-07-27T21:29:18.149Z,0.85
2022-07-27T21:31:46.817Z,0.90
2022-07-27T21:34:16.565Z,1.13
2022-07-27T21:36:43.726Z,0.90
2022-07-27T21:39:10.291Z,0.80
2022-07-27T21:41:38.508Z,1.00
2022-07-27T21:44:05.221Z,0.98
2022-07-27T21:46:31.898Z,1.00
2022-07-27T21:48:58.624Z,0.90
2022-07-27T21:51:25.306Z,0.90
2022-07-27T21:53:52.028Z,0.95
2022-07-27T21:56:18.892Z,1.50
2022-07-27T21:58:46.250Z,1.02
2022-07-27T22:01:13.197Z,1.15
2022-07-27T22:03:41.339Z,0.70
2022-07-27T22:06:09.625Z,0.68
2022-07-27T22:08:36.143Z,1.08
2022-07-27T22:11:02.690Z,0.70
2022-07-27T22:13:29.254Z,1.08
2022-07-27T22:15:55.832Z,0.85
2022-07-27T22:18:22.621Z,1.02
2022-07-27T22:20:49.371Z,1.17
2022-07-27T22:23:16.189Z,1.17
2022-07-27T22:25:42.813Z,1.10
2022-07-27T22:28:09.309Z,0.80
2022-07-27T22:30:35.829Z,0.70
2022-07-27T22:33:02.374Z,0.95
2022-07-27T22:35:28.927Z,1.08
2022-07-27T22:37:55.485Z,0.88
2022-07-27T22:40:22.477Z,0.93
2022-07-27T22:42:49.015Z,1.10
2022-07-27T22:45:17.216Z,0.80
2022-07-27T22:47:43.892Z,0.90
2022-07-27T22:50:14.052Z,0.80
2022-07-27T22:52:45.008Z,0.75
2022-07-27T22:55:11.515Z,1.05
2022-07-27T22:57:38.134Z,1.05
2022-07-27T23:00:06.645Z,0.75
2022-07-27T23:02:34.212Z,1.08
2022-07-27T23:05:00.814Z,0.80
2022-07-27T23:07:27.719Z,0.82
2022-07-27T23:09:54.232Z,0.88
2022-07-27T23:12:24.047Z,1.30
2022-07-27T23:14:50.592Z,0.80
2022-07-27T23:17:17.130Z,1.92
2022-07-27T23:19:43.671Z,1.50
2022-07-27T23:22:10.979Z,1.00
2022-07-27T23:24:38.426Z,1.10
2022-07-27T23:27:07.729Z,0.85
2022-07-27T23:29:34.319Z,0.93
2022-07-27T23:32:02.541Z,1.23
2022-07-27T23:34:29.242Z,1.10
2022-07-27T23:36:56.091Z,1.20
2022-07-27T23:39:22.581Z,1.20
2022-07-27T23:41:50.189Z,1.10
2022-07-27T23:44:17.486Z,1.33
2022-07-27T23:46:44.270Z,1.55
2022-07-27T23:49:11.000Z,1.15
2022-07-27T23:51:37.569Z,1.23
2022-07-27T23:54:04.161Z,1.30
2022-07-27T23:56:30.692Z,1.60
2022-07-27T23:58:57.551Z,1.17
